Terminal Aerodrome Forecast
Issued by NWS

Home | Current Version | Previous Version | Text Only | Print | Product List | Glossary On
Versions: 1 2 3 4 5 6 7 8 9 10 11 12 13 14 15 16 17 18 19 20 21
370
FTUS44 KLIX 251426 AAA
TAFGPT
TAF AMD
KGPT 251426Z 2514/2612 32004KT P6SM -SHRA OVC010
      TEMPO 2514/2516 2SM +SHRA OVC008
     FM251800 17008KT P6SM VCSH BKN025
     FM252300 14006KT 4SM -SHRA BKN020
     FM260600 16006KT P6SM VCTS OVC015CB=

USA.gov is the U.S. government's official web portal to all federal, state and local government web resources and services.